sensor_id;sensor_type;location;lat;lon;timestamp;pressure;altitude;pressure_sealevel;temperature;humidity
82746;BME280;72484;50.004;14.356;2024-03-23T00:56:30;97238.87;;;13.21;66.31
82746;BME280;72484;50.004;14.356;2024-03-23T00:59:50;97236.08;;;13.26;66.79
82746;BME280;72484;50.004;14.356;2024-03-23T01:03:49;97228.64;;;13.35;67.00
82746;BME280;72484;50.004;14.356;2024-03-23T01:08:07;97214.20;;;13.40;66.91
82746;BME280;72484;50.004;14.356;2024-03-23T01:11:27;97216.71;;;13.34;66.05
82746;BME280;72484;50.004;14.356;2024-03-23T01:15:29;97206.41;;;13.27;66.42
82746;BME280;72484;50.004;14.356;2024-03-23T01:19:28;97205.25;;;13.25;66.23
82746;BME280;72484;50.004;14.356;2024-03-23T01:23:45;97198.98;;;13.28;65.86
82746;BME280;72484;50.004;14.356;2024-03-23T01:27:23;97190.74;;;13.26;66.17
82746;BME280;72484;50.004;14.356;2024-03-23T01:31:01;97182.06;;;13.26;66.24
82746;BME280;72484;50.004;14.356;2024-03-23T01:34:39;97182.40;;;13.20;65.98
82746;BME280;72484;50.004;14.356;2024-03-23T01:37:59;97175.10;;;13.09;66.20
82746;BME280;72484;50.004;14.356;2024-03-23T01:41:58;97174.70;;;13.09;66.28
82746;BME280;72484;50.004;14.356;2024-03-23T01:46:18;97171.64;;;13.06;66.59
82746;BME280;72484;50.004;14.356;2024-03-23T01:49:57;97168.48;;;12.99;66.75
82746;BME280;72484;50.004;14.356;2024-03-23T01:53:32;97165.53;;;13.04;66.46
82746;BME280;72484;50.004;14.356;2024-03-23T01:56:56;97157.45;;;13.06;66.51
82746;BME280;72484;50.004;14.356;2024-03-23T02:01:13;97149.20;;;13.05;66.67
82746;BME280;72484;50.004;14.356;2024-03-23T02:04:34;97153.27;;;13.02;66.68
82746;BME280;72484;50.004;14.356;2024-03-23T02:08:33;97147.73;;;13.00;67.01
82746;BME280;72484;50.004;14.356;2024-03-23T02:12:34;97140.03;;;13.03;67.17
82746;BME280;72484;50.004;14.356;2024-03-23T02:16:51;97139.46;;;13.03;66.55
82746;BME280;72484;50.004;14.356;2024-03-23T02:20:13;97134.73;;;12.95;66.05
82746;BME280;72484;50.004;14.356;2024-03-23T02:24:29;97131.31;;;12.94;66.08
82746;BME280;72484;50.004;14.356;2024-03-23T02:27:49;97121.88;;;12.88;65.97
82746;BME280;72484;50.004;14.356;2024-03-23T02:31:49;97113.48;;;12.88;66.11
82746;BME280;72484;50.004;14.356;2024-03-23T02:36:06;97107.96;;;12.88;65.79
82746;BME280;72484;50.004;14.356;2024-03-23T02:39:26;97102.58;;;12.82;66.07
82746;BME280;72484;50.004;14.356;2024-03-23T02:43:25;97093.42;;;12.83;66.14
82746;BME280;72484;50.004;14.356;2024-03-23T02:47:23;97088.45;;;12.81;66.62
82746;BME280;72484;50.004;14.356;2024-03-23T02:51:40;97084.69;;;12.78;65.84
82746;BME280;72484;50.004;14.356;2024-03-23T02:55:19;97082.71;;;12.75;65.47
82746;BME280;72484;50.004;14.356;2024-03-23T02:58:55;97082.88;;;12.66;65.41
82746;BME280;72484;50.004;14.356;2024-03-23T03:02:17;97074.51;;;12.62;65.35
82746;BME280;72484;50.004;14.356;2024-03-23T03:06:34;97063.02;;;12.60;65.07
82746;BME280;72484;50.004;14.356;2024-03-23T03:09:54;97056.85;;;12.55;65.68
82746;BME280;72484;50.004;14.356;2024-03-23T03:13:53;97048.99;;;12.50;65.32
82746;BME280;72484;50.004;14.356;2024-03-23T03:18:09;97042.73;;;12.50;65.21
82746;BME280;72484;50.004;14.356;2024-03-23T03:21:48;97037.22;;;12.48;65.88
82746;BME280;72484;50.004;14.356;2024-03-23T03:25:09;97033.73;;;12.44;65.93
82746;BME280;72484;50.004;14.356;2024-03-23T03:29:11;97025.98;;;12.41;65.14
82746;BME280;72484;50.004;14.356;2024-03-23T03:33:28;97020.56;;;12.25;64.41
82746;BME280;72484;50.004;14.356;2024-03-23T03:36:49;97021.52;;;12.08;64.64
82746;BME280;72484;50.004;14.356;2024-03-23T03:41:06;97010.98;;;11.96;64.94
82746;BME280;72484;50.004;14.356;2024-03-23T03:44:44;97004.70;;;11.83;65.25
82746;BME280;72484;50.004;14.356;2024-03-23T03:48:03;97001.82;;;11.67;65.69
82746;BME280;72484;50.004;14.356;2024-03-23T03:52:03;96995.15;;;11.62;65.90
82746;BME280;72484;50.004;14.356;2024-03-23T03:56:19;97000.73;;;11.60;66.11
82746;BME280;72484;50.004;14.356;2024-03-23T03:59:40;96993.00;;;11.56;66.08
82746;BME280;72484;50.004;14.356;2024-03-23T04:03:56;96988.40;;;11.52;66.29
82746;BME280;72484;50.004;14.356;2024-03-23T04:07:34;96988.17;;;11.51;66.55
82746;BME280;72484;50.004;14.356;2024-03-23T04:10:54;96989.63;;;11.60;66.26
82746;BME280;72484;50.004;14.356;2024-03-23T04:14:54;96988.05;;;11.68;65.98
82746;BME280;72484;50.004;14.356;2024-03-23T04:18:54;96981.88;;;11.72;65.98
82746;BME280;72484;50.004;14.356;2024-03-23T04:23:11;96975.54;;;11.67;66.03
82746;BME280;72484;50.004;14.356;2024-03-23T04:26:33;96955.98;;;11.63;66.19
82746;BME280;72484;50.004;14.356;2024-03-23T04:30:38;96958.01;;;11.47;66.25
82746;BME280;72484;50.004;14.356;2024-03-23T04:34:38;96960.39;;;11.44;66.32
82746;BME280;72484;50.004;14.356;2024-03-23T04:38:56;96965.52;;;11.49;65.96
82746;BME280;72484;50.004;14.356;2024-03-23T04:42:34;96956.02;;;11.51;66.03
82746;BME280;72484;50.004;14.356;2024-03-23T04:45:53;96948.50;;;11.56;66.24
82746;BME280;72484;50.004;14.356;2024-03-23T04:49:54;96936.66;;;11.62;65.73
82746;BME280;72484;50.004;14.356;2024-03-23T04:54:13;96937.46;;;11.61;65.78
82746;BME280;72484;50.004;14.356;2024-03-23T04:57:51;96944.89;;;11.62;65.67
82746;BME280;72484;50.004;14.356;2024-03-23T05:01:28;96941.64;;;11.58;65.50
82746;BME280;72484;50.004;14.356;2024-03-23T05:05:06;96935.00;;;11.52;65.43
82746;BME280;72484;50.004;14.356;2024-03-23T05:08:27;96922.91;;;11.50;65.59
82746;BME280;72484;50.004;14.356;2024-03-23T05:12:45;96917.79;;;11.54;65.88
82746;BME280;72484;50.004;14.356;2024-03-23T05:16:21;96910.43;;;11.51;65.93
82746;BME280;72484;50.004;14.356;2024-03-23T05:20:00;96907.73;;;11.44;66.44
82746;BME280;72484;50.004;14.356;2024-03-23T05:23:36;96906.27;;;11.51;66.88
82746;BME280;72484;50.004;14.356;2024-03-23T05:26:58;96893.95;;;11.49;66.96
82746;BME280;72484;50.004;14.356;2024-03-23T05:30:59;96893.26;;;11.45;67.32
82746;BME280;72484;50.004;14.356;2024-03-23T05:35:00;96893.16;;;11.45;67.59
82746;BME280;72484;50.004;14.356;2024-03-23T05:39:00;96888.31;;;11.47;67.29
82746;BME280;72484;50.004;14.356;2024-03-23T05:43:16;96882.22;;;11.48;67.39
82746;BME280;72484;50.004;14.356;2024-03-23T05:46:54;96870.74;;;11.53;67.61
82746;BME280;72484;50.004;14.356;2024-03-23T05:50:32;96865.52;;;11.57;67.95
82746;BME280;72484;50.004;14.356;2024-03-23T05:53:54;96862.25;;;11.59;67.31
82746;BME280;72484;50.004;14.356;2024-03-23T05:58:10;96854.60;;;11.73;67.35
82746;BME280;72484;50.004;14.356;2024-03-23T06:01:48;96860.79;;;11.83;67.03
82746;BME280;72484;50.004;14.356;2024-03-23T06:05:26;96843.79;;;11.88;67.41
82746;BME280;72484;50.004;14.356;2024-03-23T06:08:46;96846.19;;;11.80;69.41
82746;BME280;72484;50.004;14.356;2024-03-23T06:13:03;96842.22;;;11.75;70.26
82746;BME280;72484;50.004;14.356;2024-03-23T06:16:40;96838.33;;;11.72;70.73
82746;BME280;72484;50.004;14.356;2024-03-23T06:20:02;96834.80;;;11.73;70.59
82746;BME280;72484;50.004;14.356;2024-03-23T06:24:01;96832.73;;;11.83;69.96
82746;BME280;72484;50.004;14.356;2024-03-23T06:28:02;96817.32;;;11.85;70.26
82746;BME280;72484;50.004;14.356;2024-03-23T06:32:03;96807.28;;;11.82;70.13
82746;BME280;72484;50.004;14.356;2024-03-23T06:36:21;96809.10;;;11.82;70.16
82746;BME280;72484;50.004;14.356;2024-03-23T06:40:00;96798.85;;;11.85;70.21
82746;BME280;72484;50.004;14.356;2024-03-23T06:43:35;96785.27;;;11.85;70.04
82746;BME280;72484;50.004;14.356;2024-03-23T06:47:14;96781.80;;;11.86;70.09
82746;BME280;72484;50.004;14.356;2024-03-23T06:50:35;96780.82;;;11.84;70.13
82746;BME280;72484;50.004;14.356;2024-03-23T06:54:37;96775.46;;;11.87;71.10
82746;BME280;72484;50.004;14.356;2024-03-23T06:58:36;96772.36;;;11.94;70.82
82746;BME280;72484;50.004;14.356;2024-03-23T07:02:36;96764.46;;;12.09;71.24
82746;BME280;72484;50.004;14.356;2024-03-23T07:06:43;96760.83;;;12.27;70.74
82746;BME280;72484;50.004;14.356;2024-03-23T07:11:01;96751.60;;;12.43;69.83
82746;BME280;72484;50.004;14.356;2024-03-23T07:14:39;96737.55;;;12.47;68.31
82746;BME280;72484;50.004;14.356;2024-03-23T07:17:58;96731.40;;;12.42;67.76
82746;BME280;72484;50.004;14.356;2024-03-23T07:21:58;96717.38;;;12.45;67.58
82746;BME280;72484;50.004;14.356;2024-03-23T07:26:01;96714.29;;;12.51;67.42
82746;BME280;72484;50.004;14.356;2024-03-23T07:30:00;96710.77;;;12.51;67.48
82746;BME280;72484;50.004;14.356;2024-03-23T07:33:59;96709.38;;;12.59;67.63
82746;BME280;72484;50.004;14.356;2024-03-23T07:37:58;96697.89;;;12.69;68.33
82746;BME280;72484;50.004;14.356;2024-03-23T07:42:02;96690.54;;;12.78;67.32
82746;BME280;72484;50.004;14.356;2024-03-23T07:46:02;96689.56;;;12.89;66.68
82746;BME280;72484;50.004;14.356;2024-03-23T07:50:18;96679.19;;;12.97;66.33
82746;BME280;72484;50.004;14.356;2024-03-23T07:53:42;96669.84;;;13.03;65.87
82746;BME280;72484;50.004;14.356;2024-03-23T07:57:59;96659.15;;;13.18;64.95
82746;BME280;72484;50.004;14.356;2024-03-23T08:01:21;96653.29;;;13.27;65.17
82746;BME280;72484;50.004;14.356;2024-03-23T08:05:38;96648.55;;;13.42;65.08
82746;BME280;72484;50.004;14.356;2024-03-23T08:09:16;96641.38;;;13.57;64.68
82746;BME280;72484;50.004;14.356;2024-03-23T08:12:55;96639.66;;;13.72;64.53
82746;BME280;72484;50.004;14.356;2024-03-23T08:16:13;96633.90;;;13.86;64.76
82746;BME280;72484;50.004;14.356;2024-03-23T08:20:13;96626.14;;;14.02;63.96
82746;BME280;72484;50.004;14.356;2024-03-23T08:24:11;96617.55;;;14.29;63.28
82746;BME280;72484;50.004;14.356;2024-03-23T08:28:28;96614.54;;;14.51;61.27
82746;BME280;72484;50.004;14.356;2024-03-23T08:32:05;96615.35;;;14.66;59.99
82746;BME280;72484;50.004;14.356;2024-03-23T08:35:42;96615.77;;;14.85;59.55
82746;BME280;72484;50.004;14.356;2024-03-23T08:39:02;96614.46;;;15.07;58.75
82746;BME280;72484;50.004;14.356;2024-03-23T08:43:01;96617.57;;;15.22;57.67
82746;BME280;72484;50.004;14.356;2024-03-23T08:47:17;96612.22;;;15.36;57.16
82746;BME280;72484;50.004;14.356;2024-03-23T08:51:01;96615.38;;;15.48;55.98
82746;BME280;72484;50.004;14.356;2024-03-23T08:54:15;96604.45;;;15.56;55.48
82746;BME280;72484;50.004;14.356;2024-03-23T08:58:14;96597.31;;;15.66;54.91
82746;BME280;72484;50.004;14.356;2024-03-23T09:02:32;96595.04;;;15.71;54.73
82746;BME280;72484;50.004;14.356;2024-03-23T09:05:52;96605.95;;;15.67;53.95
82746;BME280;72484;50.004;14.356;2024-03-23T09:10:10;96614.34;;;15.57;53.91
82746;BME280;72484;50.004;14.356;2024-03-23T09:13:47;96634.41;;;15.41;54.53
82746;BME280;72484;50.004;14.356;2024-03-23T09:17:08;96648.85;;;15.19;58.76
82746;BME280;72484;50.004;14.356;2024-03-23T09:21:26;96650.86;;;14.93;61.59
82746;BME280;72484;50.004;14.356;2024-03-23T09:25:05;96663.34;;;14.62;62.65
82746;BME280;72484;50.004;14.356;2024-03-23T09:28:24;96679.21;;;14.35;60.95
82746;BME280;72484;50.004;14.356;2024-03-23T09:32:43;96677.70;;;14.03;62.92
82746;BME280;72484;50.004;14.356;2024-03-23T09:36:19;96663.57;;;13.71;64.36
82746;BME280;72484;50.004;14.356;2024-03-23T09:39:56;96660.34;;;13.64;64.00
82746;BME280;72484;50.004;14.356;2024-03-23T09:43:16;96663.67;;;13.69;64.03
82746;BME280;72484;50.004;14.356;2024-03-23T09:47:34;96670.02;;;13.73;62.67
82746;BME280;72484;50.004;14.356;2024-03-23T09:51:11;96668.79;;;13.65;62.15
82746;BME280;72484;50.004;14.356;2024-03-23T09:54:49;96659.60;;;13.54;63.60
82746;BME280;72484;50.004;14.356;2024-03-23T09:58:26;96679.63;;;13.43;64.67
82746;BME280;72484;50.004;14.356;2024-03-23T10:02:04;96690.92;;;13.27;64.50
82746;BME280;72484;50.004;14.356;2024-03-23T10:05:24;96703.35;;;13.16;65.26
82746;BME280;72484;50.004;14.356;2024-03-23T10:09:42;96705.20;;;13.15;65.34
82746;BME280;72484;50.004;14.356;2024-03-23T10:13:26;96707.77;;;13.13;65.13
82746;BME280;72484;50.004;14.356;2024-03-23T10:17:12;96718.15;;;13.11;65.31
82746;BME280;72484;50.004;14.356;2024-03-23T10:20:22;96726.77;;;13.08;65.98
82746;BME280;72484;50.004;14.356;2024-03-23T10:24:22;96728.77;;;13.06;67.00
82746;BME280;72484;50.004;14.356;2024-03-23T10:28:57;96727.39;;;13.00;68.17
82746;BME280;72484;50.004;14.356;2024-03-23T10:32:17;96732.70;;;12.94;68.32
82746;BME280;72484;50.004;14.356;2024-03-23T10:35:37;96744.63;;;12.90;68.33
82746;BME280;72484;50.004;14.356;2024-03-23T10:39:54;96751.13;;;12.95;68.20
82746;BME280;72484;50.004;14.356;2024-03-23T10:43:13;96755.11;;;13.04;68.19
82746;BME280;72484;50.004;14.356;2024-03-23T10:47:14;96751.81;;;13.14;67.72
82746;BME280;72484;50.004;14.356;2024-03-23T10:51:31;96748.71;;;13.26;66.43
82746;BME280;72484;50.004;14.356;2024-03-23T10:55:11;96732.55;;;13.29;66.18
82746;BME280;72484;50.004;14.356;2024-03-23T10:58:48;96741.96;;;13.36;65.73
82746;BME280;72484;50.004;14.356;2024-03-23T11:02:07;96743.89;;;13.49;65.25
82746;BME280;72484;50.004;14.356;2024-03-23T11:06:35;96749.66;;;13.64;64.50
82746;BME280;72484;50.004;14.356;2024-03-23T11:10:52;96746.20;;;13.76;62.65
82746;BME280;72484;50.004;14.356;2024-03-23T11:14:33;96753.17;;;13.85;62.76
82746;BME280;72484;50.004;14.356;2024-03-23T11:18:08;96747.79;;;13.98;60.96
82746;BME280;72484;50.004;14.356;2024-03-23T11:21:55;96740.33;;;13.98;60.57
82746;BME280;72484;50.004;14.356;2024-03-23T11:25:14;96734.61;;;14.04;60.09
82746;BME280;72484;50.004;14.356;2024-03-23T11:29:15;96741.63;;;14.09;59.39
82746;BME280;72484;50.004;14.356;2024-03-23T11:33:31;96742.17;;;14.14;57.96
82746;BME280;72484;50.004;14.356;2024-03-23T11:37:09;96749.39;;;14.10;57.76
82746;BME280;72484;50.004;14.356;2024-03-23T11:40:30;96757.81;;;14.00;57.41
82746;BME280;72484;50.004;14.356;2024-03-23T11:44:48;96751.73;;;13.97;57.58
82746;BME280;72484;50.004;14.356;2024-03-23T11:48:11;96749.31;;;13.93;57.92
82746;BME280;72484;50.004;14.356;2024-03-23T11:52:28;96745.67;;;14.00;56.43
82746;BME280;72484;50.004;14.356;2024-03-23T11:55:49;96756.66;;;13.93;53.94
82746;BME280;72484;50.004;14.356;2024-03-23T12:00:24;96753.36;;;13.84;52.10
82746;BME280;72484;50.004;14.356;2024-03-23T12:03:44;96813.64;;;13.59;53.75
82746;BME280;72484;50.004;14.356;2024-03-23T12:07:24;96847.94;;;12.70;60.98
82746;BME280;72484;50.004;14.356;2024-03-23T12:11:07;96857.31;;;11.81;65.48
82746;BME280;72484;50.004;14.356;2024-03-23T12:14:19;96870.15;;;11.06;66.97
82746;BME280;72484;50.004;14.356;2024-03-23T12:18:18;96871.27;;;10.51;64.30
82746;BME280;72484;50.004;14.356;2024-03-23T12:22:24;96875.11;;;10.24;63.61
82746;BME280;72484;50.004;14.356;2024-03-23T12:26:24;96880.95;;;10.15;63.54
82746;BME280;72484;50.004;14.356;2024-03-23T12:30:23;96871.36;;;10.28;63.05
82746;BME280;72484;50.004;14.356;2024-03-23T12:34:22;96891.41;;;10.38;60.49
82746;BME280;72484;50.004;14.356;2024-03-23T12:38:40;96895.09;;;10.39;59.56
82746;BME280;72484;50.004;14.356;2024-03-23T12:42:19;96887.86;;;10.48;57.85
82746;BME280;72484;50.004;14.356;2024-03-23T12:45:54;96911.61;;;10.53;55.70
82746;BME280;72484;50.004;14.356;2024-03-23T12:49:15;96937.59;;;10.50;53.65
82746;BME280;72484;50.004;14.356;2024-03-23T12:53:34;96956.27;;;10.53;52.85
82746;BME280;72484;50.004;14.356;2024-03-23T12:57:12;96965.90;;;10.54;53.43
82746;BME280;72484;50.004;14.356;2024-03-23T13:00:50;96993.01;;;10.59;51.94
82746;BME280;72484;50.004;14.356;2024-03-23T13:04:10;96997.80;;;10.47;52.09
82746;BME280;72484;50.004;14.356;2024-03-23T13:08:13;96997.45;;;10.45;51.55
82746;BME280;72484;50.004;14.356;2024-03-23T13:12:29;97011.03;;;10.40;52.23
82746;BME280;72484;50.004;14.356;2024-03-23T13:16:07;97028.80;;;10.44;52.58
82746;BME280;72484;50.004;14.356;2024-03-23T13:19:27;97020.44;;;10.40;51.70
82746;BME280;72484;50.004;14.356;2024-03-23T13:23:48;97010.23;;;10.37;52.09
82746;BME280;72484;50.004;14.356;2024-03-23T13:27:24;97042.23;;;10.36;52.13
82746;BME280;72484;50.004;14.356;2024-03-23T13:30:51;97040.23;;;10.40;51.37
82746;BME280;72484;50.004;14.356;2024-03-23T13:35:09;97020.20;;;10.44;51.94
82746;BME280;72484;50.004;14.356;2024-03-23T13:38:45;97038.70;;;10.41;51.16
82746;BME280;72484;50.004;14.356;2024-03-23T13:42:23;97039.83;;;10.28;51.16
82746;BME280;72484;50.004;14.356;2024-03-23T13:45:44;97042.20;;;10.11;51.57
82746;BME280;72484;50.004;14.356;2024-03-23T13:50:02;97074.64;;;10.07;52.31
82746;BME280;72484;50.004;14.356;2024-03-23T13:53:37;97085.62;;;10.13;52.84
82746;BME280;72484;50.004;14.356;2024-03-23T13:56:58;97084.53;;;10.17;51.06
82746;BME280;72484;50.004;14.356;2024-03-23T14:00:59;97083.61;;;10.05;51.23
82746;BME280;72484;50.004;14.356;2024-03-23T14:05:15;97087.08;;;10.09;51.28
82746;BME280;72484;50.004;14.356;2024-03-23T14:08:53;97077.19;;;10.03;51.88
82746;BME280;72484;50.004;14.356;2024-03-23T14:12:32;97081.44;;;9.97;51.93
82746;BME280;72484;50.004;14.356;2024-03-23T14:16:09;97083.45;;;9.88;51.94
82746;BME280;72484;50.004;14.356;2024-03-23T14:19:48;97081.33;;;9.77;51.84
82746;BME280;72484;50.004;14.356;2024-03-23T14:23:24;97094.17;;;9.72;52.96
82746;BME280;72484;50.004;14.356;2024-03-23T14:27:03;97114.68;;;9.70;53.08
82746;BME280;72484;50.004;14.356;2024-03-23T14:30:40;97104.71;;;9.66;53.30
82746;BME280;72484;50.004;14.356;2024-03-23T14:34:01;97107.74;;;9.66;53.40
82746;BME280;72484;50.004;14.356;2024-03-23T14:38:01;97098.02;;;9.61;53.55
82746;BME280;72484;50.004;14.356;2024-03-23T14:42:18;97116.45;;;9.54;53.64
82746;BME280;72484;50.004;14.356;2024-03-23T14:45:38;97128.08;;;9.48;54.36
82746;BME280;72484;50.004;14.356;2024-03-23T14:50:07;97130.45;;;9.45;55.07
82746;BME280;72484;50.004;14.356;2024-03-23T14:53:25;97127.67;;;9.44;54.74
82746;BME280;72484;50.004;14.356;2024-03-23T14:57:44;97124.85;;;9.42;54.12
82746;BME280;72484;50.004;14.356;2024-03-23T15:01:22;97127.16;;;9.42;53.28
82746;BME280;72484;50.004;14.356;2024-03-23T15:04:59;97132.67;;;9.44;53.87
82746;BME280;72484;50.004;14.356;2024-03-23T15:08:37;97131.55;;;9.38;53.33
82746;BME280;72484;50.004;14.356;2024-03-23T15:12:16;97132.82;;;9.36;54.08
82746;BME280;72484;50.004;14.356;2024-03-23T15:15:53;97126.92;;;9.37;53.59
82746;BME280;72484;50.004;14.356;2024-03-23T15:19:13;97113.66;;;9.29;53.44
82746;BME280;72484;50.004;14.356;2024-03-23T15:23:31;97114.40;;;9.27;52.64
82746;BME280;72484;50.004;14.356;2024-03-23T15:26:51;97111.98;;;9.18;52.84
82746;BME280;72484;50.004;14.356;2024-03-23T15:30:52;97108.80;;;9.18;52.89
82746;BME280;72484;50.004;14.356;2024-03-23T15:35:09;97107.79;;;9.22;52.69
82746;BME280;72484;50.004;14.356;2024-03-23T15:38:46;97102.91;;;9.18;52.82
82746;BME280;72484;50.004;14.356;2024-03-23T15:42:24;97101.34;;;9.16;53.15
82746;BME280;72484;50.004;14.356;2024-03-23T15:46:03;97096.75;;;9.21;53.11
82746;BME280;72484;50.004;14.356;2024-03-23T15:49:22;97104.66;;;9.13;53.36
82746;BME280;72484;50.004;14.356;2024-03-23T15:53:39;97117.27;;;9.11;53.17
82746;BME280;72484;50.004;14.356;2024-03-23T15:57:18;97116.95;;;9.10;53.70
82746;BME280;72484;50.004;14.356;2024-03-23T16:00:58;97114.30;;;9.12;53.62
82746;BME280;72484;50.004;14.356;2024-03-23T16:04:32;97106.74;;;9.17;54.09
82746;BME280;72484;50.004;14.356;2024-03-23T16:08:09;97110.13;;;9.25;54.16
82746;BME280;72484;50.004;14.356;2024-03-23T16:11:47;97109.27;;;9.29;53.85
82746;BME280;72484;50.004;14.356;2024-03-23T16:15:08;97106.20;;;9.27;53.86
82746;BME280;72484;50.004;14.356;2024-03-23T16:19:24;97094.51;;;9.32;53.95
82746;BME280;72484;50.004;14.356;2024-03-23T16:23:02;97097.59;;;9.39;54.33
82746;BME280;72484;50.004;14.356;2024-03-23T16:26:22;97092.27;;;9.36;54.41
82746;BME280;72484;50.004;14.356;2024-03-23T16:30:21;97086.88;;;9.40;54.61
82746;BME280;72484;50.004;14.356;2024-03-23T16:34:36;97094.58;;;9.37;54.74
82746;BME280;72484;50.004;14.356;2024-03-23T16:38:14;97088.64;;;9.35;54.58
82746;BME280;72484;50.004;14.356;2024-03-23T16:41:34;97075.81;;;9.35;54.94
82746;BME280;72484;50.004;14.356;2024-03-23T16:45:54;97088.27;;;9.38;54.68
82746;BME280;72484;50.004;14.356;2024-03-23T16:49:29;97089.40;;;9.37;54.71
82746;BME280;72484;50.004;14.356;2024-03-23T16:53:05;97080.83;;;9.36;54.84
82746;BME280;72484;50.004;14.356;2024-03-23T16:56:43;97098.58;;;9.31;54.72
82746;BME280;72484;50.004;14.356;2024-03-23T17:00:21;97102.91;;;9.24;55.25
82746;BME280;72484;50.004;14.356;2024-03-23T17:03:41;97093.41;;;9.20;55.66
82746;BME280;72484;50.004;14.356;2024-03-23T17:07:56;97078.52;;;9.25;55.48
82746;BME280;72484;50.004;14.356;2024-03-23T17:11:34;97079.08;;;9.26;55.65
82746;BME280;72484;50.004;14.356;2024-03-23T17:15:14;97070.58;;;9.19;55.59
82746;BME280;72484;50.004;14.356;2024-03-23T17:18:49;97057.04;;;9.15;55.80
82746;BME280;72484;50.004;14.356;2024-03-23T17:22:10;97071.45;;;9.08;55.85
82746;BME280;72484;50.004;14.356;2024-03-23T17:26:26;97081.52;;;9.05;55.67
82746;BME280;72484;50.004;14.356;2024-03-23T17:29:46;97097.97;;;9.02;55.59
82746;BME280;72484;50.004;14.356;2024-03-23T17:34:02;97107.91;;;9.09;55.94
82746;BME280;72484;50.004;14.356;2024-03-23T17:37:22;97117.18;;;9.11;56.42
82746;BME280;72484;50.004;14.356;2024-03-23T17:41:20;97120.71;;;9.20;56.85
82746;BME280;72484;50.004;14.356;2024-03-23T17:45:18;97134.86;;;9.33;56.88
82746;BME280;72484;50.004;14.356;2024-03-23T17:49:17;97137.54;;;9.45;57.87
82746;BME280;72484;50.004;14.356;2024-03-23T17:53:38;97125.92;;;9.54;57.70
82746;BME280;72484;50.004;14.356;2024-03-23T17:56:53;97133.54;;;9.52;57.60
82746;BME280;72484;50.004;14.356;2024-03-23T18:01:10;97146.64;;;9.53;57.59
82746;BME280;72484;50.004;14.356;2024-03-23T18:04:30;97149.04;;;9.53;57.65
82746;BME280;72484;50.004;14.356;2024-03-23T18:08:46;97147.34;;;9.55;57.53
82746;BME280;72484;50.004;14.356;2024-03-23T18:12:24;97142.61;;;9.57;57.59
82746;BME280;72484;50.004;14.356;2024-03-23T18:15:45;97144.34;;;9.59;57.91
82746;BME280;72484;50.004;14.356;2024-03-23T18:19:45;97150.52;;;9.55;57.08
82746;BME280;72484;50.004;14.356;2024-03-23T18:24:02;97150.88;;;9.54;57.65
82746;BME280;72484;50.004;14.356;2024-03-23T18:27:39;97148.25;;;9.47;57.73
82746;BME280;72484;50.004;14.356;2024-03-23T18:31:17;97152.05;;;9.38;57.51
82746;BME280;72484;50.004;14.356;2024-03-23T18:34:56;97138.75;;;9.34;57.60
82746;BME280;72484;50.004;14.356;2024-03-23T18:38:32;97146.77;;;9.35;58.35
82746;BME280;72484;50.004;14.356;2024-03-23T18:42:10;97152.82;;;9.34;58.62
82746;BME280;72484;50.004;14.356;2024-03-23T18:45:48;97143.27;;;9.35;58.79
82746;BME280;72484;50.004;14.356;2024-03-23T18:49:27;97138.54;;;9.32;58.18
82746;BME280;72484;50.004;14.356;2024-03-23T18:52:47;97143.89;;;9.24;58.48
82746;BME280;72484;50.004;14.356;2024-03-23T18:56:45;97145.62;;;9.15;58.13
82746;BME280;72484;50.004;14.356;2024-03-23T19:01:04;97137.84;;;9.08;58.57
82746;BME280;72484;50.004;14.356;2024-03-23T19:04:39;97137.60;;;9.09;59.34
82746;BME280;72484;50.004;14.356;2024-03-23T19:07:59;97139.51;;;8.96;58.20
82746;BME280;72484;50.004;14.356;2024-03-23T19:12:17;97125.89;;;8.91;58.37
82746;BME280;72484;50.004;14.356;2024-03-23T19:15:54;97125.55;;;8.87;56.51
82746;BME280;72484;50.004;14.356;2024-03-23T19:19:33;97122.16;;;8.90;56.07
82746;BME280;72484;50.004;14.356;2024-03-23T19:23:10;97121.39;;;8.88;55.77
82746;BME280;72484;50.004;14.356;2024-03-23T19:26:30;97123.20;;;8.77;55.06
82746;BME280;72484;50.004;14.356;2024-03-23T19:30:28;97118.87;;;8.67;54.75
82746;BME280;72484;50.004;14.356;2024-03-23T19:34:43;97109.55;;;8.62;54.93
82746;BME280;72484;50.004;14.356;2024-03-23T19:38:22;97113.26;;;8.52;54.90
82746;BME280;72484;50.004;14.356;2024-03-23T19:41:59;97115.69;;;8.41;54.81
82746;BME280;72484;50.004;14.356;2024-03-23T19:45:38;97123.48;;;8.34;54.91
82746;BME280;72484;50.004;14.356;2024-03-23T19:49:14;97128.17;;;8.24;54.76
82746;BME280;72484;50.004;14.356;2024-03-23T19:52:52;97137.58;;;8.14;54.90
82746;BME280;72484;50.004;14.356;2024-03-23T19:56:30;97136.15;;;8.14;54.69
82746;BME280;72484;50.004;14.356;2024-03-23T19:59:50;97133.97;;;8.09;54.98
82746;BME280;72484;50.004;14.356;2024-03-23T20:04:05;97130.27;;;8.04;54.25
82746;BME280;72484;50.004;14.356;2024-03-23T20:07:43;97133.80;;;7.94;54.03
82746;BME280;72484;50.004;14.356;2024-03-23T20:11:03;97132.57;;;7.82;54.05
82746;BME280;72484;50.004;14.356;2024-03-23T20:15:19;97128.06;;;7.79;54.10
82746;BME280;72484;50.004;14.356;2024-03-23T20:18:56;97129.38;;;7.74;54.01
82746;BME280;72484;50.004;14.356;2024-03-23T20:22:34;97128.59;;;7.72;54.05
82746;BME280;72484;50.004;14.356;2024-03-23T20:26:12;97133.86;;;7.69;54.20
82746;BME280;72484;50.004;14.356;2024-03-23T20:29:32;97139.16;;;7.73;54.05
82746;BME280;72484;50.004;14.356;2024-03-23T20:33:31;97144.27;;;7.77;54.09
82746;BME280;72484;50.004;14.356;2024-03-23T20:37:29;97140.54;;;7.78;54.11
82746;BME280;72484;50.004;14.356;2024-03-23T20:41:44;97140.61;;;7.78;53.77
82746;BME280;72484;50.004;14.356;2024-03-23T20:45:22;97139.74;;;7.79;53.34